Time;durP1;ratioP1;P1;durP2;ratioP2;P2;SDS_P1;SDS_P2;PMS_P1;PMS_P2;Temp;Humidity;BMP_temperature;BMP_pressure;BME280_temperature;BME280_humidity;BME280_pressure;Samples;Min_cycle;Max_cycle;Signal;HPM_P1;HPM_P2
2022/05/30 00:02:22;;;;;;;4.23;3.50;;;;;;;;;;4991026;28;20189;-86
2022/05/30 00:05:27;;;;;;;4.03;3.63;;;;;;;;;;4991467;28;20186;-86
2022/05/30 00:08:31;;;;;;;4.67;3.90;;;;;;;;;;5013718;28;20221;-86
2022/05/30 00:11:36;;;;;;;4.00;3.60;;;;;;;;;;5002454;28;20177;-86
2022/05/30 00:14:39;;;;;;;4.43;4.03;;;;;;;;;;4980022;28;20625;-86
2022/05/30 00:17:43;;;;;;;4.20;3.80;;;;;;;;;;4964329;28;20190;-86
2022/05/30 00:20:48;;;;;;;7.17;4.07;;;;;;;;;;4982798;28;20558;-86
2022/05/30 00:23:55;;;;;;;7.40;4.17;;;;;;;;;;4960449;28;20182;-86
2022/05/30 00:27:00;;;;;;;4.70;4.17;;;;;;;;;;4971681;28;20182;-86
2022/05/30 00:30:06;;;;;;;5.17;4.60;;;;;;;;;;4990838;28;20221;-86
2022/05/30 00:33:11;;;;;;;6.73;5.57;;;;;;;;;;4980057;28;20182;-86
2022/05/30 00:36:16;;;;;;;6.53;4.80;;;;;;;;;;4990987;28;20346;-86
2022/05/30 00:39:20;;;;;;;5.93;4.33;;;;;;;;;;4974204;28;20564;-85
2022/05/30 00:42:26;;;;;;;4.53;4.13;;;;;;;;;;4963153;28;20179;-86
2022/05/30 00:45:30;;;;;;;4.93;4.23;;;;;;;;;;4952020;28;20179;-86
2022/05/30 00:48:38;;;;;;;4.03;3.63;;;;;;;;;;4990504;28;20220;-86
2022/05/30 00:51:51;;;;;;;5.43;4.93;;;;;;;;;;5000848;28;20169;-86
2022/05/30 00:55:00;;;;;;;5.77;4.90;;;;;;;;;;4982041;28;20186;-85
2022/05/30 00:58:06;;;;;;;5.63;4.40;;;;;;;;;;4960066;28;20217;-86
2022/05/30 01:01:10;;;;;;;4.83;4.33;;;;;;;;;;4971153;28;20218;-86
2022/05/30 01:07:41;;;;;;;8.00;5.17;;;;;;;;;;4986325;28;20186;-86
2022/05/30 01:10:45;;;;;;;5.43;4.93;;;;;;;;;;4975039;28;20182;-86
2022/05/30 01:13:49;;;;;;;5.70;4.43;;;;;;;;;;4963777;28;20186;-86
2022/05/30 01:16:54;;;;;;;5.40;4.90;;;;;;;;;;4964046;28;20182;-86
2022/05/30 01:20:13;;;;;;;4.90;4.50;;;;;;;;;;4974574;28;20225;-86
2022/05/30 01:23:25;;;;;;;4.67;4.27;;;;;;;;;;4986078;28;20179;-86
2022/05/30 01:26:45;;;;;;;6.10;4.07;;;;;;;;;;4964249;28;20186;-86
2022/05/30 01:30:04;;;;;;;32.13;3.83;;;;;;;;;;4974363;28;20265;-85
2022/05/30 01:33:08;;;;;;;3.37;3.07;;;;;;;;;;4985608;28;20201;-85
2022/05/30 01:36:13;;;;;;;4.33;3.47;;;;;;;;;;4977364;28;20661;-85
2022/05/30 01:39:17;;;;;;;3.50;3.20;;;;;;;;;;4985531;28;20214;-86
2022/05/30 01:42:25;;;;;;;3.70;3.40;;;;;;;;;;4985227;28;20222;-86
2022/05/30 01:45:30;;;;;;;4.77;4.20;;;;;;;;;;4974176;28;20194;-86
2022/05/30 01:48:35;;;;;;;4.60;3.97;;;;;;;;;;4963166;28;20221;-86
2022/05/30 01:51:41;;;;;;;4.87;4.07;;;;;;;;;;4974159;28;20248;-86
2022/05/30 01:54:47;;;;;;;5.30;4.33;;;;;;;;;;4974253;28;20186;-86
2022/05/30 01:58:14;;;;;;;4.30;3.90;;;;;;;;;;4982382;28;20226;-86
2022/05/30 02:01:38;;;;;;;5.07;4.53;;;;;;;;;;5016071;28;20209;-86
2022/05/30 02:04:43;;;;;;;5.60;4.83;;;;;;;;;;4993516;28;20181;-86
2022/05/30 02:07:47;;;;;;;5.03;4.53;;;;;;;;;;4993720;28;20657;-86
2022/05/30 02:10:56;;;;;;;4.03;3.63;;;;;;;;;;4983149;28;20186;-86
2022/05/30 02:14:01;;;;;;;5.27;4.70;;;;;;;;;;4954435;28;20183;-85
2022/05/30 02:17:09;;;;;;;5.43;4.80;;;;;;;;;;4954570;28;20183;-86
2022/05/30 02:20:14;;;;;;;7.87;4.60;;;;;;;;;;4980299;28;20189;-86
2022/05/30 02:23:18;;;;;;;5.23;4.73;;;;;;;;;;4981683;28;20194;-86
2022/05/30 02:26:22;;;;;;;6.10;4.70;;;;;;;;;;4993213;28;20177;-86
2022/05/30 02:29:26;;;;;;;5.43;4.80;;;;;;;;;;4992762;28;20217;-86
2022/05/30 02:32:35;;;;;;;6.57;5.10;;;;;;;;;;4982528;28;20177;-86
2022/05/30 02:39:03;;;;;;;6.10;3.97;;;;;;;;;;5004154;28;20217;-86
2022/05/30 02:42:33;;;;;;;4.10;3.70;;;;;;;;;;5003953;28;20210;-86
2022/05/30 02:45:38;;;;;;;4.20;3.67;;;;;;;;;;5003998;28;20201;-86
2022/05/30 02:48:42;;;;;;;4.63;4.03;;;;;;;;;;4992537;28;20711;-86
2022/05/30 02:51:47;;;;;;;4.73;4.30;;;;;;;;;;4991234;28;20193;-85
2022/05/30 02:54:52;;;;;;;4.90;4.40;;;;;;;;;;4972969;28;20201;-86
2022/05/30 02:58:04;;;;;;;6.83;4.70;;;;;;;;;;4972836;28;20693;-85
2022/05/30 03:01:08;;;;;;;6.67;4.47;;;;;;;;;;4972879;28;20210;-86
2022/05/30 03:04:16;;;;;;;6.67;5.53;;;;;;;;;;4972785;28;20198;-86
2022/05/30 03:07:20;;;;;;;5.63;5.00;;;;;;;;;;4963981;28;20178;-86
2022/05/30 03:10:25;;;;;;;6.67;5.60;;;;;;;;;;5002136;28;20190;-86
2022/05/30 03:13:34;;;;;;;6.37;5.10;;;;;;;;;;4981975;28;20186;-86
2022/05/30 03:16:38;;;;;;;5.80;5.20;;;;;;;;;;4994803;28;20194;-86
2022/05/30 03:19:43;;;;;;;6.33;5.00;;;;;;;;;;4961732;28;20221;-86
2022/05/30 03:22:48;;;;;;;6.70;4.30;;;;;;;;;;4972704;28;20206;-86
2022/05/30 03:26:16;;;;;;;6.00;4.27;;;;;;;;;;4982751;28;20182;-86
2022/05/30 03:29:20;;;;;;;6.37;4.00;;;;;;;;;;5015873;28;20213;-85
2022/05/30 03:32:27;;;;;;;6.17;3.67;;;;;;;;;;4992317;28;20173;-86
2022/05/30 03:35:31;;;;;;;3.97;3.57;;;;;;;;;;4991748;28;20182;-86
2022/05/30 03:38:56;;;;;;;42.33;4.17;;;;;;;;;;5003002;28;20558;-85
2022/05/30 03:42:29;;;;;;;8.03;3.87;;;;;;;;;;4923785;28;20234;-86
2022/05/30 03:45:44;;;;;;;38.67;4.20;;;;;;;;;;4964813;28;20183;-86
2022/05/30 03:48:50;;;;;;;33.10;4.10;;;;;;;;;;4964724;28;20222;-85
2022/05/30 03:51:54;;;;;;;23.03;4.10;;;;;;;;;;4942682;28;20179;-85
2022/05/30 03:54:58;;;;;;;5.00;4.50;;;;;;;;;;4953606;28;20183;-85
2022/05/30 03:58:05;;;;;;;11.57;6.37;;;;;;;;;;4976119;28;20174;-86
2022/05/30 04:01:12;;;;;;;19.67;6.97;;;;;;;;;;4964972;28;20669;-86
2022/05/30 04:04:16;;;;;;;14.43;7.50;;;;;;;;;;4954569;28;20206;-86
2022/05/30 04:07:20;;;;;;;11.93;6.60;;;;;;;;;;4963915;28;20186;-86
2022/05/30 04:10:47;;;;;;;10.63;6.23;;;;;;;;;;4974588;28;20187;-86
2022/05/30 04:13:51;;;;;;;9.77;6.57;;;;;;;;;;4976110;28;20183;-85
2022/05/30 04:17:03;;;;;;;7.07;6.07;;;;;;;;;;4974362;28;20198;-86
2022/05/30 04:20:08;;;;;;;8.10;6.17;;;;;;;;;;4952891;28;20230;-85
2022/05/30 04:23:13;;;;;;;6.60;5.67;;;;;;;;;;4963969;28;20210;-86
2022/05/30 04:26:24;;;;;;;7.00;5.97;;;;;;;;;;4954544;28;20183;-87
2022/05/30 04:29:30;;;;;;;7.43;6.10;;;;;;;;;;4963610;28;20217;-86
2022/05/30 04:33:10;;;;;;;8.20;6.67;;;;;;;;;;4996358;28;20174;-90
2022/05/30 04:36:15;;;;;;;6.77;5.40;;;;;;;;;;5000680;28;20185;-86
2022/05/30 04:39:24;;;;;;;8.30;5.73;;;;;;;;;;4990503;28;20213;-86
2022/05/30 04:42:33;;;;;;;9.37;5.80;;;;;;;;;;5013258;28;20205;-86
2022/05/30 04:46:15;;;;;;;11.13;5.80;;;;;;;;;;4954771;28;20539;-85
2022/05/30 04:49:26;;;;;;;6.50;5.73;;;;;;;;;;4972228;28;20693;-86
2022/05/30 04:52:30;;;;;;;5.87;5.27;;;;;;;;;;4960172;28;20170;-86
2022/05/30 04:55:37;;;;;;;6.67;5.97;;;;;;;;;;4971340;28;20182;-87
2022/05/30 04:58:44;;;;;;;6.30;5.37;;;;;;;;;;4970824;28;20692;-87
2022/05/30 05:01:54;;;;;;;5.13;4.63;;;;;;;;;;4970999;28;20226;-87
2022/05/30 05:04:59;;;;;;;10.60;6.37;;;;;;;;;;4982117;28;20638;-87
2022/05/30 05:08:27;;;;;;;6.33;5.50;;;;;;;;;;4960267;28;20222;-87
2022/05/30 05:12:06;;;;;;;9.33;6.70;;;;;;;;;;4981931;28;20178;-87
2022/05/30 05:15:29;;;;;;;7.10;5.97;;;;;;;;;;4982060;28;20630;-87
2022/05/30 05:18:46;;;;;;;7.80;6.97;;;;;;;;;;4962605;28;20686;-86
2022/05/30 05:21:50;;;;;;;17.77;11.90;;;;;;;;;;4973883;28;20678;-86
2022/05/30 05:24:55;;;;;;;15.40;10.30;;;;;;;;;;4962569;28;20691;-86
2022/05/30 05:28:21;;;;;;;19.07;10.23;;;;;;;;;;4986058;28;20226;-88
2022/05/30 05:31:33;;;;;;;36.17;9.80;;;;;;;;;;5001387;28;20185;-86
2022/05/30 05:34:37;;;;;;;11.40;8.60;;;;;;;;;;4990120;28;20198;-86
2022/05/30 05:37:41;;;;;;;14.27;10.37;;;;;;;;;;4978945;28;20198;-86
2022/05/30 05:41:08;;;;;;;18.20;9.93;;;;;;;;;;4993418;28;20681;-86
2022/05/30 05:44:27;;;;;;;13.57;9.40;;;;;;;;;;4981675;28;20199;-86
2022/05/30 05:47:34;;;;;;;11.80;9.90;;;;;;;;;;4975680;28;20182;-85
2022/05/30 05:50:13;;;;;;;12.07;9.30;;;;;;;;;;5006966;23;20572;-79
2022/05/30 05:53:17;;;;;;;9.37;8.37;;;;;;;;;;4988713;28;20174;-79
2022/05/30 05:56:28;;;;;;;16.37;8.20;;;;;;;;;;4988522;28;20182;-79
2022/05/30 05:59:32;;;;;;;9.63;8.63;;;;;;;;;;5031001;23;20232;-79
2022/05/30 06:02:38;;;;;;;11.17;7.80;;;;;;;;;;5000044;28;20217;-80
2022/05/30 06:05:43;;;;;;;9.60;8.60;;;;;;;;;;5036739;28;20192;-79
2022/05/30 06:09:26;;;;;;;9.60;8.60;;;;;;;;;;5031462;28;20185;-80
2022/05/30 06:12:42;;;;;;;10.93;9.83;;;;;;;;;;5038922;28;20212;-79
2022/05/30 06:15:46;;;;;;;9.47;8.47;;;;;;;;;;5042609;28;20197;-79
2022/05/30 06:18:55;;;;;;;14.13;10.27;;;;;;;;;;5033427;28;20200;-80
2022/05/30 06:22:00;;;;;;;34.37;15.77;;;;;;;;;;5039199;28;20237;-80
2022/05/30 06:25:05;;;;;;;10.00;8.33;;;;;;;;;;5045828;28;20205;-79
2022/05/30 06:28:24;;;;;;;8.50;7.47;;;;;;;;;;5022642;28;20197;-79
2022/05/30 06:31:40;;;;;;;8.63;7.50;;;;;;;;;;5032709;28;20213;-79
2022/05/30 06:34:44;;;;;;;8.07;7.27;;;;;;;;;;5043719;28;20181;-80
2022/05/30 06:37:49;;;;;;;7.47;6.67;;;;;;;;;;5009469;28;20181;-79
2022/05/30 06:40:55;;;;;;;9.03;7.60;;;;;;;;;;5010680;28;20229;-79
2022/05/30 06:44:06;;;;;;;7.83;7.03;;;;;;;;;;5018498;28;20185;-80
2022/05/30 06:47:29;;;;;;;8.70;7.80;;;;;;;;;;5061321;28;20180;-80
2022/05/30 06:50:56;;;;;;;8.13;7.33;;;;;;;;;;5045431;28;20630;-79
2022/05/30 06:54:00;;;;;;;7.90;7.10;;;;;;;;;;5017775;28;20177;-79
2022/05/30 07:00:30;;;;;;;7.23;5.97;;;;;;;;;;5046090;28;20204;-79
2022/05/30 07:03:53;;;;;;;6.20;5.60;;;;;;;;;;5048647;28;20208;-79
2022/05/30 07:07:15;;;;;;;6.07;5.47;;;;;;;;;;5044461;28;20192;-79
2022/05/30 07:10:41;;;;;;;5.90;5.30;;;;;;;;;;5016549;28;20217;-80
2022/05/30 07:13:51;;;;;;;5.13;4.63;;;;;;;;;;4997249;28;20197;-79
2022/05/30 07:16:55;;;;;;;4.40;4.00;;;;;;;;;;5020444;28;20186;-79
2022/05/30 07:20:01;;;;;;;4.63;3.80;;;;;;;;;;5009204;28;20181;-79
2022/05/30 07:23:23;;;;;;;4.40;3.60;;;;;;;;;;5010174;28;20668;-80
2022/05/30 07:26:48;;;;;;;4.47;4.07;;;;;;;;;;5052408;28;20189;-80
2022/05/30 07:30:25;;;;;;;3.80;3.40;;;;;;;;;;5005407;28;20227;-80
2022/05/30 07:33:49;;;;;;;3.70;3.20;;;;;;;;;;5041759;28;20181;-80
2022/05/30 07:37:17;;;;;;;2.77;2.43;;;;;;;;;;5041884;28;20196;-80
2022/05/30 07:40:56;;;;;;;2.53;2.33;;;;;;;;;;5050624;28;20215;-80
2022/05/30 07:44:16;;;;;;;3.13;2.57;;;;;;;;;;5034818;28;20180;-80
2022/05/30 07:47:30;;;;;;;2.97;2.07;;;;;;;;;;5016857;28;20185;-80
2022/05/30 07:50:57;;;;;;;1.90;1.80;;;;;;;;;;5008149;28;20217;-80
2022/05/30 07:54:24;;;;;;;2.77;2.17;;;;;;;;;;5009378;28;20184;-80
2022/05/30 07:57:51;;;;;;;1.50;1.30;;;;;;;;;;5038775;28;20635;-81
2022/05/30 08:00:55;;;;;;;2.40;1.47;;;;;;;;;;5005606;28;20213;-80
2022/05/30 08:04:04;;;;;;;1.70;1.47;;;;;;;;;;5007657;28;20210;-80
2022/05/30 08:07:23;;;;;;;1.67;1.33;;;;;;;;;;5022382;28;20180;-80
2022/05/30 08:10:46;;;;;;;2.00;1.03;;;;;;;;;;5044714;28;20560;-80
2022/05/30 08:13:52;;;;;;;1.30;0.80;;;;;;;;;;5028251;28;20347;-80
2022/05/30 08:16:56;;;;;;;1.87;1.10;;;;;;;;;;5025474;28;20652;-80
2022/05/30 08:20:02;;;;;;;1.70;1.00;;;;;;;;;;5003697;28;20197;-81
2022/05/30 08:23:11;;;;;;;2.83;1.07;;;;;;;;;;5009287;28;20216;-81
2022/05/30 08:26:15;;;;;;;1.50;1.00;;;;;;;;;;5033932;28;20193;-81
2022/05/30 08:29:48;;;;;;;1.50;1.00;;;;;;;;;;5025833;28;20192;-81
2022/05/30 08:32:53;;;;;;;1.20;1.10;;;;;;;;;;5023193;28;20512;-81
2022/05/30 08:36:15;;;;;;;2.53;1.60;;;;;;;;;;5037522;28;20193;-81
2022/05/30 08:42:44;;;;;;;3.87;1.17;;;;;;;;;;4992223;28;20213;-81
2022/05/30 08:46:04;;;;;;;1.97;1.37;;;;;;;;;;5002890;28;20177;-82
2022/05/30 08:49:22;;;;;;;2.33;1.27;;;;;;;;;;4998757;28;20201;-81
2022/05/30 08:52:38;;;;;;;2.27;1.20;;;;;;;;;;5021305;28;20228;-82
2022/05/30 08:55:56;;;;;;;4.10;1.47;;;;;;;;;;5025724;28;20537;-81
2022/05/30 08:59:42;;;;;;;2.70;1.60;;;;;;;;;;5013762;28;20549;-81
2022/05/30 09:03:13;;;;;;;2.17;1.30;;;;;;;;;;5034441;28;20216;-80
2022/05/30 09:06:27;;;;;;;1.50;1.30;;;;;;;;;;5011904;28;20204;-81
2022/05/30 09:09:46;;;;;;;2.03;1.50;;;;;;;;;;5012687;28;20205;-81
2022/05/30 09:13:19;;;;;;;1.50;1.30;;;;;;;;;;5041348;28;20188;-81
2022/05/30 09:16:31;;;;;;;1.83;1.10;;;;;;;;;;5024542;28;20196;-80
2022/05/30 09:19:39;;;;;;;3.63;1.00;;;;;;;;;;5013445;28;20194;-80
2022/05/30 09:22:45;;;;;;;1.93;1.27;;;;;;;;;;5021801;28;20544;-78
2022/05/30 09:26:00;;;;;;;1.67;1.00;;;;;;;;;;5027544;28;20182;-78
2022/05/30 09:29:29;;;;;;;5.47;1.03;;;;;;;;;;5028525;28;20535;-79
2022/05/30 09:33:01;;;;;;;1.97;1.17;;;;;;;;;;5025918;28;20176;-78
2022/05/30 09:36:49;;;;;;;2.05;1.20;;;;;;;;;;4965231;28;20205;-79
2022/05/30 09:40:10;;;;;;;2.47;0.88;;;;;;;;;;4973371;28;20194;-79
2022/05/30 09:43:41;;;;;;;3.20;0.95;;;;;;;;;;5020274;28;20207;-80
2022/05/30 09:46:54;;;;;;;1.63;0.93;;;;;;;;;;5028797;28;20192;-80
2022/05/30 09:50:27;;;;;;;1.63;0.80;;;;;;;;;;5014152;28;20191;-79
2022/05/30 09:53:44;;;;;;;0.85;0.73;;;;;;;;;;5018544;28;20186;-80
2022/05/30 09:56:52;;;;;;;1.50;0.90;;;;;;;;;;5005723;28;20659;-80
2022/05/30 10:00:17;;;;;;;1.00;0.70;;;;;;;;;;5027370;28;20202;-80
2022/05/30 10:03:24;;;;;;;1.90;0.90;;;;;;;;;;4994901;28;20215;-80
2022/05/30 10:06:31;;;;;;;2.58;0.80;;;;;;;;;;5018111;28;20190;-79
2022/05/30 10:10:19;;;;;;;1.75;0.90;;;;;;;;;;5046409;28;20181;-79
2022/05/30 10:13:36;;;;;;;2.00;0.90;;;;;;;;;;5030736;28;20191;-79
2022/05/30 10:17:26;;;;;;;1.52;1.00;;;;;;;;;;4969132;28;20661;-80
2022/05/30 10:20:45;;;;;;;1.40;0.80;;;;;;;;;;5001096;28;20205;-81
2022/05/30 10:28:35;;;;;;;1.00;0.80;;;;;;;;;;5018126;28;20181;-80
2022/05/30 10:32:09;;;;;;;2.58;1.10;;;;;;;;;;5033371;28;20224;-80
2022/05/30 10:35:45;;;;;;;1.05;0.73;;;;;;;;;;5023110;28;20193;-80
2022/05/30 10:39:20;;;;;;;1.10;0.80;;;;;;;;;;5011986;28;20201;-79
2022/05/30 10:42:54;;;;;;;1.00;0.75;;;;;;;;;;5020347;28;20226;-79
2022/05/30 10:46:02;;;;;;;0.77;0.50;;;;;;;;;;5047396;28;20196;-79
2022/05/30 10:49:12;;;;;;;1.65;0.68;;;;;;;;;;5034739;28;20191;-79
2022/05/30 10:52:26;;;;;;;1.15;0.82;;;;;;;;;;5025043;28;20231;-79
2022/05/30 10:55:38;;;;;;;1.63;0.60;;;;;;;;;;5003047;28;20199;-79
2022/05/30 10:58:50;;;;;;;1.50;0.80;;;;;;;;;;4987182;28;20692;-79
2022/05/30 11:02:12;;;;;;;2.65;1.40;;;;;;;;;;4985606;28;20220;-76
2022/05/30 11:05:39;;;;;;;0.88;0.60;;;;;;;;;;5027434;28;20195;-80
2022/05/30 11:09:01;;;;;;;4.50;0.90;;;;;;;;;;5024385;28;20629;-79
2022/05/30 11:12:13;;;;;;;3.80;0.90;;;;;;;;;;5057398;28;20223;-79
2022/05/30 11:15:27;;;;;;;1.70;0.80;;;;;;;;;;5035530;28;20185;-78
2022/05/30 11:18:59;;;;;;;2.25;0.80;;;;;;;;;;5017230;28;20184;-78
2022/05/30 11:22:38;;;;;;;1.27;0.77;;;;;;;;;;5017622;28;20216;-78
2022/05/30 11:26:04;;;;;;;2.28;0.70;;;;;;;;;;5014250;28;20659;-78
2022/05/30 11:29:26;;;;;;;1.50;0.77;;;;;;;;;;5031713;28;20195;-78
2022/05/30 11:32:49;;;;;;;2.63;0.60;;;;;;;;;;5059639;28;20215;-79
2022/05/30 11:36:18;;;;;;;1.23;0.80;;;;;;;;;;5035675;28;20634;-79
2022/05/30 11:39:55;;;;;;;1.67;0.57;;;;;;;;;;5031624;28;20196;-79
2022/05/30 11:42:59;;;;;;;1.38;0.60;;;;;;;;;;5003292;28;20195;-79
2022/05/30 11:46:16;;;;;;;1.70;0.60;;;;;;;;;;5046351;28;20187;-79
2022/05/30 11:49:29;;;;;;;2.55;0.65;;;;;;;;;;5046384;28;20182;-79
2022/05/30 11:52:42;;;;;;;1.15;0.75;;;;;;;;;;4995762;28;20262;-79
2022/05/30 11:56:00;;;;;;;2.13;0.80;;;;;;;;;;5018634;28;20531;-81
2022/05/30 11:59:07;;;;;;;3.22;0.77;;;;;;;;;;5005630;28;20213;-82
2022/05/30 12:02:17;;;;;;;1.10;0.80;;;;;;;;;;5058521;23;20235;-86
2022/05/30 12:05:34;;;;;;;2.20;1.07;;;;;;;;;;5029558;28;20208;-85
2022/05/30 12:09:09;;;;;;;2.67;0.73;;;;;;;;;;5030807;28;20181;-85
2022/05/30 12:12:55;;;;;;;2.23;0.80;;;;;;;;;;5005903;28;20566;-86
2022/05/30 12:16:16;;;;;;;2.10;0.80;;;;;;;;;;5013018;28;20210;-85
2022/05/30 12:26:53;;;;;;;3.00;0.97;;;;;;;;;;5001849;28;20183;-84
2022/05/30 12:29:58;;;;;;;1.07;0.93;;;;;;;;;;5028172;28;20189;-84
2022/05/30 12:33:31;;;;;;;2.30;0.83;;;;;;;;;;5003241;28;20532;-86
2022/05/30 12:36:37;;;;;;;2.77;0.80;;;;;;;;;;5018829;28;20198;-84
2022/05/30 12:39:42;;;;;;;0.97;0.60;;;;;;;;;;5015725;28;20189;-85
2022/05/30 12:43:08;;;;;;;2.15;0.88;;;;;;;;;;5030460;28;20182;-85
2022/05/30 12:46:20;;;;;;;1.35;0.70;;;;;;;;;;5003603;28;20186;-85
2022/05/30 12:49:33;;;;;;;1.77;0.60;;;;;;;;;;5018171;28;20194;-85
2022/05/30 12:52:53;;;;;;;4.45;1.10;;;;;;;;;;5014675;28;20189;-85
2022/05/30 12:55:57;;;;;;;2.60;0.63;;;;;;;;;;5010292;28;20651;-85
2022/05/30 12:59:15;;;;;;;1.33;0.60;;;;;;;;;;5023672;28;20196;-85
2022/05/30 13:02:57;;;;;;;1.58;0.70;;;;;;;;;;4990353;28;20243;-85
2022/05/30 13:06:17;;;;;;;1.08;0.80;;;;;;;;;;5016174;28;20176;-85
2022/05/30 13:09:25;;;;;;;1.25;0.70;;;;;;;;;;4994536;28;20188;-85
2022/05/30 13:12:52;;;;;;;1.73;0.77;;;;;;;;;;5005689;28;20215;-85
2022/05/30 13:16:04;;;;;;;1.05;0.60;;;;;;;;;;5025002;28;20189;-85
2022/05/30 13:19:11;;;;;;;1.67;0.75;;;;;;;;;;5019478;28;20191;-85
2022/05/30 13:22:38;;;;;;;1.88;0.80;;;;;;;;;;5005708;28;20214;-85
2022/05/30 13:25:51;;;;;;;1.25;0.60;;;;;;;;;;5019303;28;20218;-84
2022/05/30 13:29:00;;;;;;;1.85;0.80;;;;;;;;;;5007543;28;20547;-85
2022/05/30 13:32:06;;;;;;;0.68;0.47;;;;;;;;;;5013860;28;20223;-85
2022/05/30 13:35:13;;;;;;;0.82;0.60;;;;;;;;;;5012269;28;20665;-85
2022/05/30 13:38:17;;;;;;;1.13;0.68;;;;;;;;;;5024953;28;20207;-86
2022/05/30 13:41:21;;;;;;;0.60;0.60;;;;;;;;;;4992974;28;20222;-86
2022/05/30 13:44:28;;;;;;;2.15;0.60;;;;;;;;;;4994055;28;20216;-85
2022/05/30 13:47:32;;;;;;;1.13;0.68;;;;;;;;;;5004916;28;20185;-87
2022/05/30 13:50:45;;;;;;;5.82;0.85;;;;;;;;;;4994192;28;20218;-86
2022/05/30 13:53:51;;;;;;;2.35;0.73;;;;;;;;;;4985906;28;20189;-85
2022/05/30 13:56:56;;;;;;;1.85;0.80;;;;;;;;;;5023608;28;20192;-82
2022/05/30 14:00:07;;;;;;;1.75;0.80;;;;;;;;;;5013028;28;20193;-82
2022/05/30 14:03:15;;;;;;;2.35;0.80;;;;;;;;;;5024298;28;20198;-85
2022/05/30 14:06:41;;;;;;;2.03;0.70;;;;;;;;;;5014062;28;20200;-82
2022/05/30 14:09:48;;;;;;;8.93;0.80;;;;;;;;;;4995978;28;20195;-82
2022/05/30 14:12:53;;;;;;;1.08;0.60;;;;;;;;;;5006669;28;20184;-82
2022/05/30 14:15:59;;;;;;;3.00;0.70;;;;;;;;;;5004951;28;20516;-82
2022/05/30 14:19:09;;;;;;;1.35;0.50;;;;;;;;;;5019864;28;20200;-82
2022/05/30 14:22:22;;;;;;;2.65;0.50;;;;;;;;;;5035776;28;20225;-82
2022/05/30 14:25:47;;;;;;;1.48;0.70;;;;;;;;;;4989145;28;20690;-85
2022/05/30 14:28:59;;;;;;;0.93;0.50;;;;;;;;;;5003662;28;20218;-86
2022/05/30 14:32:23;;;;;;;2.20;0.90;;;;;;;;;;5010053;28;20218;-86
2022/05/30 14:35:27;;;;;;;0.60;0.60;;;;;;;;;;4993904;28;20523;-87
2022/05/30 14:38:42;;;;;;;1.05;0.70;;;;;;;;;;5023989;28;20195;-86
2022/05/30 14:42:01;;;;;;;1.17;0.70;;;;;;;;;;4993413;28;20215;-86
2022/05/30 14:45:12;;;;;;;2.22;0.60;;;;;;;;;;5006037;28;20215;-85
2022/05/30 14:48:21;;;;;;;0.80;0.70;;;;;;;;;;5003841;28;20183;-85
2022/05/30 14:51:38;;;;;;;1.90;0.87;;;;;;;;;;4983697;28;20223;-85
2022/05/30 14:54:52;;;;;;;2.30;0.63;;;;;;;;;;4974333;28;20202;-85
2022/05/30 14:58:06;;;;;;;0.97;0.70;;;;;;;;;;5003814;28;20633;-86
2022/05/30 15:01:10;;;;;;;1.17;0.70;;;;;;;;;;5004633;28;20229;-85
2022/05/30 15:04:15;;;;;;;4.28;0.73;;;;;;;;;;5004083;28;20194;-84
2022/05/30 15:07:27;;;;;;;3.22;0.90;;;;;;;;;;5007263;28;20190;-85
2022/05/30 15:10:31;;;;;;;0.90;0.70;;;;;;;;;;5019238;28;20218;-85
2022/05/30 15:13:36;;;;;;;1.42;1.00;;;;;;;;;;5005175;28;20557;-86
2022/05/30 15:16:40;;;;;;;1.25;0.70;;;;;;;;;;5023176;28;20183;-81
2022/05/30 15:19:43;;;;;;;1.17;0.88;;;;;;;;;;5032424;28;20196;-84
2022/05/30 15:22:48;;;;;;;1.85;0.80;;;;;;;;;;4985257;28;20646;-84
2022/05/30 15:25:52;;;;;;;1.85;0.70;;;;;;;;;;4975619;28;20213;-85
2022/05/30 15:28:57;;;;;;;0.95;0.70;;;;;;;;;;5022763;28;20174;-85
2022/05/30 15:32:06;;;;;;;3.20;0.75;;;;;;;;;;5011569;28;20219;-86
2022/05/30 15:35:10;;;;;;;1.70;0.77;;;;;;;;;;5007221;28;20194;-85
2022/05/30 15:38:14;;;;;;;1.10;0.57;;;;;;;;;;4991543;28;20187;-85
2022/05/30 15:41:20;;;;;;;1.15;0.70;;;;;;;;;;5011162;28;20224;-86
2022/05/30 15:44:29;;;;;;;1.33;0.70;;;;;;;;;;5010860;28;20541;-85
2022/05/30 15:47:33;;;;;;;0.97;0.60;;;;;;;;;;5022059;28;20199;-85
2022/05/30 15:50:42;;;;;;;3.33;0.90;;;;;;;;;;4995898;28;20210;-85
2022/05/30 15:57:19;;;;;;;2.07;1.00;;;;;;;;;;4983147;28;20182;-83
2022/05/30 16:00:25;;;;;;;1.90;0.77;;;;;;;;;;4983033;28;20178;-84
2022/05/30 16:03:30;;;;;;;2.50;0.90;;;;;;;;;;4971946;28;20186;-84
2022/05/30 16:06:37;;;;;;;1.80;0.70;;;;;;;;;;5008142;28;20217;-85
2022/05/30 16:09:45;;;;;;;4.70;1.77;;;;;;;;;;5022477;28;20177;-81
2022/05/30 16:12:56;;;;;;;2.83;0.80;;;;;;;;;;4982869;28;20632;-84
2022/05/30 16:16:01;;;;;;;1.40;0.70;;;;;;;;;;4994137;28;20182;-85
2022/05/30 16:19:06;;;;;;;3.63;0.60;;;;;;;;;;4971875;28;20648;-85
2022/05/30 16:22:11;;;;;;;1.00;0.63;;;;;;;;;;4971965;28;20217;-85
2022/05/30 16:25:18;;;;;;;1.20;0.90;;;;;;;;;;5016865;28;20208;-85
2022/05/30 16:28:23;;;;;;;2.57;1.00;;;;;;;;;;4991078;28;20181;-84
2022/05/30 16:31:27;;;;;;;1.77;1.00;;;;;;;;;;4990917;28;20213;-84
2022/05/30 16:34:31;;;;;;;2.07;0.77;;;;;;;;;;5014606;28;20181;-85
2022/05/30 16:37:36;;;;;;;3.77;0.80;;;;;;;;;;5010931;28;20185;-84
2022/05/30 16:40:40;;;;;;;1.90;0.83;;;;;;;;;;5021682;28;20220;-84
2022/05/30 16:43:45;;;;;;;1.33;0.60;;;;;;;;;;5016364;28;20656;-84
2022/05/30 16:46:54;;;;;;;0.77;0.70;;;;;;;;;;5002211;28;20213;-85
2022/05/30 16:49:58;;;;;;;3.40;0.87;;;;;;;;;;5017004;28;20667;-80
2022/05/30 16:53:02;;;;;;;1.70;0.80;;;;;;;;;;5010547;28;20181;-81
2022/05/30 16:56:07;;;;;;;1.43;0.90;;;;;;;;;;4982349;28;20174;-84
2022/05/30 16:59:14;;;;;;;1.40;0.90;;;;;;;;;;5015289;28;20540;-84
2022/05/30 17:02:18;;;;;;;2.07;0.67;;;;;;;;;;4982055;28;20234;-84
2022/05/30 17:05:22;;;;;;;3.67;0.70;;;;;;;;;;5001020;28;20213;-84
2022/05/30 17:08:33;;;;;;;1.43;0.73;;;;;;;;;;4997974;28;20643;-84
2022/05/30 17:11:37;;;;;;;1.53;0.83;;;;;;;;;;4992570;28;20225;-84
2022/05/30 17:14:41;;;;;;;2.43;0.80;;;;;;;;;;5001773;28;20198;-84
2022/05/30 17:17:46;;;;;;;0.90;0.70;;;;;;;;;;5003583;28;20561;-85
2022/05/30 17:20:51;;;;;;;1.00;0.67;;;;;;;;;;4993564;28;20222;-84
2022/05/30 17:23:56;;;;;;;1.53;0.80;;;;;;;;;;4988582;28;20538;-84
2022/05/30 17:30:23;;;;;;;1.23;0.63;;;;;;;;;;4982195;28;20183;-84
2022/05/30 17:33:27;;;;;;;1.30;0.80;;;;;;;;;;5010855;28;20186;-84
2022/05/30 17:36:32;;;;;;;2.57;0.70;;;;;;;;;;5010357;28;20189;-84
2022/05/30 17:39:36;;;;;;;2.43;0.73;;;;;;;;;;5003167;28;20189;-85
2022/05/30 17:42:40;;;;;;;1.43;0.63;;;;;;;;;;5001293;28;20182;-84
2022/05/30 17:46:00;;;;;;;1.50;0.73;;;;;;;;;;4993628;28;20680;-84
2022/05/30 17:49:07;;;;;;;2.00;0.83;;;;;;;;;;4993783;28;20189;-83
2022/05/30 17:52:34;;;;;;;1.60;0.70;;;;;;;;;;4985918;28;20214;-82
2022/05/30 17:55:43;;;;;;;2.77;0.60;;;;;;;;;;4985827;28;20178;-80
2022/05/30 17:58:47;;;;;;;1.97;0.77;;;;;;;;;;5014474;28;20201;-85
2022/05/30 18:01:51;;;;;;;0.93;0.53;;;;;;;;;;5032558;23;20237;-85
2022/05/30 18:04:55;;;;;;;0.93;0.70;;;;;;;;;;5021783;28;20190;-87
2022/05/30 18:08:18;;;;;;;1.00;0.80;;;;;;;;;;4985443;28;20194;-86
2022/05/30 18:11:37;;;;;;;2.53;0.70;;;;;;;;;;4985064;28;20696;-87
2022/05/30 18:14:55;;;;;;;0.83;0.67;;;;;;;;;;4996303;28;20560;-87
2022/05/30 18:21:43;;;;;;;3.60;1.07;;;;;;;;;;5015133;28;20688;-87
2022/05/30 18:25:08;;;;;;;3.10;1.00;;;;;;;;;;4988815;28;20182;-87
2022/05/30 18:28:15;;;;;;;2.33;0.80;;;;;;;;;;5003037;28;20182;-87
2022/05/30 18:31:47;;;;;;;1.53;0.70;;;;;;;;;;4973596;28;20692;-86
2022/05/30 18:35:10;;;;;;;3.63;1.07;;;;;;;;;;4993428;28;20194;-87
2022/05/30 18:38:30;;;;;;;4.03;0.73;;;;;;;;;;4980283;28;20182;-86
2022/05/30 18:42:05;;;;;;;3.63;0.70;;;;;;;;;;4992518;28;20221;-86
2022/05/30 18:45:25;;;;;;;1.00;0.80;;;;;;;;;;4974257;28;20194;-86
2022/05/30 18:48:47;;;;;;;2.73;0.80;;;;;;;;;;4989750;28;20189;-86
2022/05/30 18:51:51;;;;;;;2.57;0.90;;;;;;;;;;4999313;28;20222;-86
2022/05/30 18:54:55;;;;;;;3.97;0.80;;;;;;;;;;4988247;28;20193;-86
2022/05/30 18:58:32;;;;;;;1.20;0.80;;;;;;;;;;4992542;28;20186;-86
2022/05/30 19:01:38;;;;;;;3.20;1.00;;;;;;;;;;5012486;28;20232;-86
2022/05/30 19:04:43;;;;;;;0.83;0.80;;;;;;;;;;4984908;28;20648;-85
2022/05/30 19:07:49;;;;;;;2.63;0.80;;;;;;;;;;4991756;28;20189;-85
2022/05/30 19:11:18;;;;;;;3.77;0.90;;;;;;;;;;4973103;28;20186;-85
2022/05/30 19:14:26;;;;;;;1.77;0.87;;;;;;;;;;4981001;28;20534;-86
2022/05/30 19:17:34;;;;;;;1.47;0.87;;;;;;;;;;4991764;28;20653;-86
2022/05/30 19:20:38;;;;;;;0.87;0.70;;;;;;;;;;4988807;28;20202;-85
2022/05/30 19:23:42;;;;;;;1.93;0.97;;;;;;;;;;4998466;28;20194;-87
2022/05/30 19:26:47;;;;;;;1.47;0.80;;;;;;;;;;5002369;28;20213;-85
2022/05/30 19:29:52;;;;;;;1.30;0.77;;;;;;;;;;4972539;28;20198;-86
2022/05/30 19:32:58;;;;;;;1.53;0.70;;;;;;;;;;4987937;28;20217;-85
2022/05/30 19:36:02;;;;;;;1.80;1.00;;;;;;;;;;5003111;28;20197;-85
2022/05/30 19:39:07;;;;;;;1.57;0.80;;;;;;;;;;4987625;28;20197;-85
2022/05/30 19:42:13;;;;;;;2.83;0.73;;;;;;;;;;4990561;28;20221;-85
2022/05/30 19:45:17;;;;;;;1.93;0.90;;;;;;;;;;4983638;28;20178;-85
2022/05/30 19:48:22;;;;;;;4.73;0.90;;;;;;;;;;4996719;28;20194;-85